Map

Track Data

SID SEASON NUMBER BASIN SUBBASIN NAME ISO_TIME NATURE LAT LON WMO_WIND WMO_PRES WMO_AGENCY TRACK_TYPE DIST2LAND LANDFALL IFLAG USA_AGENCY USA_ATCF_ID USA_LAT USA_LON USA_RECORD USA_STATUS USA_WIND USA_PRES USA_SSHS USA_R34_NE USA_R34_SE USA_R34_SW USA_R34_NW USA_R50_NE USA_R50_SE USA_R50_SW USA_R50_NW USA_R64_NE USA_R64_SE USA_R64_SW USA_R64_NW USA_POCI USA_ROCI USA_RMW USA_EYE TOKYO_LAT TOKYO_LON TOKYO_GRADE TOKYO_WIND TOKYO_PRES TOKYO_R50_DIR TOKYO_R50_LONG TOKYO_R50_SHORT TOKYO_R30_DIR TOKYO_R30_LONG TOKYO_R30_SHORT TOKYO_LAND CMA_LAT CMA_LON CMA_CAT CMA_WIND CMA_PRES HKO_LAT HKO_LON HKO_CAT HKO_WIND HKO_PRES NEWDELHI_LAT NEWDELHI_LON NEWDELHI_GRADE NEWDELHI_WIND NEWDELHI_PRES NEWDELHI_CI NEWDELHI_DP NEWDELHI_POCI REUNION_LAT REUNION_LON REUNION_TYPE REUNION_WIND REUNION_PRES REUNION_TNUM REUNION_CI REUNION_RMW REUNION_R34_NE REUNION_R34_SE REUNION_R34_SW REUNION_R34_NW REUNION_R50_NE REUNION_R50_SE REUNION_R50_SW REUNION_R50_NW REUNION_R64_NE REUNION_R64_SE REUNION_R64_SW REUNION_R64_NW BOM_LAT BOM_LON BOM_TYPE BOM_WIND BOM_PRES BOM_TNUM BOM_CI BOM_RMW BOM_R34_NE BOM_R34_SE BOM_R34_SW BOM_R34_NW BOM_R50_NE BOM_R50_SE BOM_R50_SW BOM_R50_NW BOM_R64_NE BOM_R64_SE BOM_R64_SW BOM_R64_NW BOM_ROCI BOM_POCI BOM_EYE BOM_POS_METHOD BOM_PRES_METHOD NADI_LAT NADI_LON NADI_CAT NADI_WIND NADI_PRES WELLINGTON_LAT WELLINGTON_LON WELLINGTON_WIND WELLINGTON_PRES DS824_LAT DS824_LON DS824_STAGE DS824_WIND DS824_PRES TD9636_LAT TD9636_LON TD9636_STAGE TD9636_WIND TD9636_PRES TD9635_LAT TD9635_LON TD9635_WIND TD9635_PRES TD9635_ROCI NEUMANN_LAT NEUMANN_LON NEUMANN_CLASS NEUMANN_WIND NEUMANN_PRES MLC_LAT MLC_LON MLC_CLASS MLC_WIND MLC_PRES USA_GUST BOM_GUST BOM_GUST_PER REUNION_GUST REUNION_GUST_PER USA_SEAHGT USA_SEARAD_NE USA_SEARAD_SE USA_SEARAD_SW USA_SEARAD_NW STORM_SPEED STORM_DIR
1985026S16126 1985 15 SI WA GERTIE 1985-01-26 00:00:00 TS -16.1000 126.000 20 1006 bom main 0 0 ______O___O_O_ -1 -16.1000 126.000 20 20 1006 7 -16.1000 126.000 1 -16.1000 126.000 TC 15 1006 3 200
1985026S16126 1985 15 SI WA GERTIE 1985-01-26 03:00:00 TS -16.2337 125.935 20 1004 bom main 0 0 ______O___P_P_ -1 -16.2000 125.900 20 20 1004 7 -16.2437 125.948 1 -16.2575 125.958 TC 20 1004 3 198
1985026S16126 1985 15 SI WA GERTIE 1985-01-26 06:00:00 TS -16.3933 125.896 20 1003 bom main 0 0 ______O___P_O_ -1 -16.4000 125.900 20 20 1003 7 -16.3800 125.888 1 -16.4000 125.900 TC 25 1003 3 205
1985026S16126 1985 15 SI WA GERTIE 1985-01-26 09:00:00 TS -16.5054 125.808 20 1002 bom main 0 0 ______O___P_P_ -1 -16.5000 125.800 20 20 1002 7 -16.5012 125.808 1 -16.5150 125.815 TC 25 1003 3 222
1985026S16126 1985 15 SI WA GERTIE 1985-01-26 12:00:00 TS -16.6000 125.700 20 1003 bom main 0 0 ______O___O_O_ -1 -16.6000 125.700 20 20 1003 7 -16.6000 125.700 1 -16.6000 125.700 TC 25 1003 3 241
1985026S16126 1985 15 SI WA GERTIE 1985-01-26 15:00:00 TS -16.6384 125.558 main 0 0 ______P___P_P_ -1 -16.5860 125.553 20 20 1003 -16.6716 125.558 1 -16.6575 125.565 TC 22 1003 3 254
1985026S16126 1985 15 SI WA GERTIE 1985-01-26 16:00:00 TS -16.6542 125.506 20 1004 bom main 0 0 ______O___P_P_ -1 -16.6000 125.500 20 20 1004 7 -16.6904 125.504 1 -16.6721 125.513 TC 21 1003 3 246
1985026S16126 1985 15 SI WA GERTIE 1985-01-26 18:00:00 TS -16.7075 125.396 20 1004 bom main 0 0 ______O___P_O_ -1 -16.7000 125.400 20 20 1004 7 -16.7225 125.387 1 -16.7000 125.400 TC 20 1004 4 254
1985026S16126 1985 15 SI WA GERTIE 1985-01-26 21:00:00 TS -16.7374 125.202 20 1004 bom main 0 0 ______O___P_P_ -1 -16.7000 125.200 20 20 1004 7 -16.7622 125.198 1 -16.7500 125.207 TC 20 1004 4 256
1985026S16126 1985 15 SI WA GERTIE 1985-01-27 00:00:00 TS -16.8000 125.000 20 1004 bom main 0 0 ______O___O_O_ -1 -16.8000 125.000 20 20 1004 7 -16.8000 125.000 1 -16.8000 125.000 TC 20 1004 4 252
1985026S16126 1985 15 SI WA GERTIE 1985-01-27 03:00:00 TS -16.8626 124.805 20 1004 bom main 0 0 ______O___P_P_ -1 -16.9000 124.800 20 20 1004 7 -16.8377 124.815 1 -16.8500 124.800 TC 20 1004 4 256
1985026S16126 1985 15 SI WA GERTIE 1985-01-27 06:00:00 TS -16.8925 124.607 20 1004 bom main 0 0 ______O___P_O_ -1 -16.9000 124.600 20 20 1004 7 -16.8774 124.622 1 -16.9000 124.600 TC 20 1004 4 256
1985026S16126 1985 15 SI WA GERTIE 1985-01-27 09:00:00 TS -16.9594 124.406 20 1004 bom main 0 0 ______O___P_P_ -1 -17.0000 124.400 20 20 1004 7 -16.9283 124.418 1 -16.9500 124.400 TC 20 1004 4 255
1985026S16126 1985 15 SI WA GERTIE 1985-01-27 12:00:00 TS -17.0000 124.200 20 1005 bom main 0 0 ______O___O_O_ -1 -17.0000 124.200 20 20 1005 7 -17.0000 124.200 1 -17.0000 124.200 TC 20 1005 4 255
1985026S16126 1985 15 SI WA GERTIE 1985-01-27 15:00:00 TS -17.0705 123.986 main 0 0 ______P___P_P_ -1 -17.0807 123.967 20 20 1005 -17.1033 123.977 1 -17.0274 124.015 TC 17 1005 4 251
1985026S16126 1985 15 SI WA GERTIE 1985-01-27 16:00:00 TS -17.0952 123.916 20 1006 bom main 0 0 ______O___P_P_ -1 -17.1000 123.900 20 20 1006 7 -17.1428 123.899 1 -17.0429 123.949 TC 16 1005 4 250
1985026S16126 1985 15 SI WA GERTIE 1985-01-27 18:00:00 TS -17.1424 123.779 20 1006 bom main 10 0 ______O___P_O_ -1 -17.1000 123.800 20 20 1006 7 -17.2273 123.737 1 -17.1000 123.800 TC 15 1006 5 245
1985026S16126 1985 15 SI WA GERTIE 1985-01-27 21:00:00 TS -17.2826 123.498 20 1006 bom main 10 0 ______O___P_P_ -1 -17.2000 123.500 20 20 1006 7 -17.3626 123.480 1 -17.2850 123.515 TC 15 1006 7 237
1985026S16126 1985 15 SI WA GERTIE 1985-01-28 00:00:00 TS -17.5000 123.200 20 1006 bom main 0 0 ______O___O_O_ -1 -17.5000 123.200 20 20 1006 7 -17.5000 123.200 1 -17.5000 123.200 TC 15 1006 7 234
1985026S16126 1985 15 SI WA GERTIE 1985-01-28 03:00:00 TS -17.6700 122.937 20 1005 bom main 0 0 ______O___P_P_ -1 -17.7000 123.000 20 20 1005 7 -17.6452 122.905 1 -17.6649 122.907 TC 17 1005 6 243
1985026S16126 1985 15 SI WA GERTIE 1985-01-28 06:00:00 TS -17.7958 122.596 25 1004 bom main 0 0 ______O___P_O_ -1 -17.8000 122.600 20 25 1004 1.50000 7 -17.7873 122.588 1 -17.8000 122.600 TC 20 1004 7 251
1985026S16126 1985 15 SI WA GERTIE 1985-01-28 09:00:00 TS -17.9036 122.239 25 1004 bom main 0 0 ______O___P_P_ -1 -17.9000 122.200 20 25 1004 1.50000 7 -17.9108 122.252 1 -17.8999 122.265 TC 22 1003 7 253
1985026S16126 1985 15 SI WA GERTIE 1985-01-28 12:00:00 TS -18.0000 121.900 25 1003 bom main 31 31 ______O___O_O_ -1 -18.0000 121.900 20 25 1003 1.50000 7 -18.0000 121.900 1 -18.0000 121.900 TC 25 1003 7 254
1985026S16126 1985 15 SI WA GERTIE 1985-01-28 15:00:00 TS -18.1082 121.490 main 53 53 ______P___P_P_ -1 -18.1474 121.439 20 25 1002 -18.0197 121.531 1 -18.1575 121.500 TC 27 1001 8 255
1985026S16126 1985 15 SI WA GERTIE 1985-01-28 16:00:00 TS -18.1427 121.356 25 1002 bom main 61 61 ______O___P_P_ -1 -18.2000 121.300 20 25 1002 1.50000 7 -18.0178 121.404 1 -18.2104 121.364 TC 28 1001 7 255
1985026S16126 1985 15 SI WA GERTIE 1985-01-28 18:00:00 TS -18.2025 121.116 25 1000 bom main 77 77 ______O___P_O_ -1 -18.3000 121.100 20 25 1000 2.00000 7 -18.0075 121.149 1 -18.3000 121.100 TC 30 1000 7 262
1985026S16126 1985 15 SI WA GERTIE 1985-01-28 21:00:00 TS -18.2213 120.770 25 999 bom main 104 104 ______O___P_P_ -1 -18.3000 120.800 20 25 999 2.00000 7 -17.9916 120.768 1 -18.3724 120.742 TC 30 999 7 266
1985026S16126 1985 15 SI WA GERTIE 1985-01-29 00:00:00 TS -18.2462 120.415 30 998 bom main 144 144 O_____O___O_O_ jtwc_sh SH171985 -18.0000 120.600 XX 25 -5 -18.4000 120.400 20 30 998 2.50000 7 -18.0000 120.400 1 -18.4000 120.400 TC 30 999 7 266
1985026S16126 1985 15 SI WA GERTIE 1985-01-29 03:00:00 TS -18.2659 120.056 30 998 bom main 168 168 P_____O___P_P_ SH171985 -18.0477 120.193 XX 27 -5 -18.4000 120.000 20 30 998 2.50000 7 -18.0994 120.057 1 -18.4075 120.042 TC 32 998 7 266
1985026S16126 1985 15 SI WA GERTIE 1985-01-29 06:00:00 TS -18.2926 119.728 30 997 bom main 186 186 O_____O___P_O_ jtwc_sh SH171985 -18.1000 119.800 XX 30 -5 -18.4000 119.700 20 30 997 2.50000 97 7 -18.2222 119.728 1 -18.4000 119.700 TC 35 997 6 265
1985026S16126 1985 15 SI WA GERTIE 1985-01-29 09:00:00 TS -18.3247 119.409 30 996 bom main 194 190 P_____O___P_P_ SH171985 -18.1574 119.435 XX 32 -5 -18.4000 119.400 20 30 996 2.50000 85 7 -18.3339 119.410 1 -18.4074 119.393 TC 37 995 6 264
1985026S16126 1985 15 SI WA GERTIE 1985-01-29 12:00:00 TS -18.3500 119.100 35 994 bom main 201 190 O_____V___O_O_ jtwc_sh SH171985 -18.2000 119.100 XX 35 -5 -18.4000 119.100 30 35 994 3.00000 78 7 -18.4000 119.100 2 38 -18.4000 119.100 TC 40 994 6 272
1985026S16126 1985 15 SI WA GERTIE 1985-01-29 15:00:00 TS -18.3085 118.788 main 203 203 P_____P___P_P_ SH171985 -18.2150 118.785 XX 37 -5 -18.3193 118.800 30 38 990 72 -18.3347 118.768 2 42 -18.3650 118.800 TC 45 991 6 279
1985026S16126 1985 15 SI WA GERTIE 1985-01-29 16:00:00 TS -18.2902 118.686 40 990 bom main 205 205 P_____O___P_P_ SH171985 -18.2133 118.687 XX 38 -5 -18.3000 118.700 30 40 990 3.00000 70 7 -18.3010 118.659 2 43 -18.3466 118.700 TC 46 990 6 280
1985026S16126 1985 15 SI WA GERTIE 1985-01-29 18:00:00 TS -18.2569 118.487 45 988 bom main 210 210 O_____O___P_O_ jtwc_sh SH171985 -18.2000 118.500 XX 40 -5 -18.3000 118.500 30 45 988 3.00000 172 7 -18.2276 118.446 2 46 -18.3000 118.500 TC 50 988 6 285
1985026S16126 1985 15 SI WA GERTIE 1985-01-29 21:00:00 TS -18.1648 118.199 45 986 bom main 232 232 P_____O___P_P_ SH171985 -18.1499 118.250 XX 42 -5 -18.2000 118.200 30 45 986 3.00000 259 7 -18.1316 118.152 2 50 -18.1775 118.192 TC 52 986 6 286
1985026S16126 1985 15 SI WA GERTIE 1985-01-30 00:00:00 TS -18.1000 117.925 50 985 bom main 256 256 O_____O___O_O_ jtwc_sh SH171985 -18.1000 118.000 XX 45 -5 -18.1000 117.900 30 50 985 3.50000 161 7 -18.1000 117.900 2 54 -18.1000 117.900 TC 55 985 5 272
1985026S16126 1985 15 SI WA GERTIE 1985-01-30 03:00:00 TS -18.1450 117.673 50 983 bom main 260 251 P_____O___P_P_ SH171985 -18.0701 117.685 XX 47 -5 -18.2000 117.700 30 50 983 3.50000 161 7 -18.1623 117.695 2 56 -18.1475 117.613 TC 57 983 5 252
1985026S16126 1985 15 SI WA GERTIE 1985-01-30 06:00:00 TS -18.2499 117.433 50 982 bom main 256 238 O_____O___P_O_ jtwc_sh SH171985 -18.1000 117.400 XX 50 -5 -18.3000 117.400 30 50 982 3.50000 145 7 -18.2998 117.533 2 58 -18.3000 117.400 TC 60 982 4 231
1985026S16126 1985 15 SI WA GERTIE 1985-01-30 09:00:00 TS -18.4287 117.307 50 980 bom main 238 207 P_____O___P_P_ SH171985 -18.1899 117.205 XX 52 -5 -18.5000 117.300 30 50 980 3.50000 157 7 -18.5124 117.404 2 60 -18.5124 117.320 TC 62 980 5 201
1985026S16126 1985 15 SI WA GERTIE 1985-01-30 12:00:00 TS -18.7000 117.250 50 978 bom main 207 182 O_____V___O_O_ jtwc_sh SH171985 -18.4000 117.100 XX 55 -5 -18.8000 117.300 30 50 978 3.50000 191 7 -18.8000 117.300 2 63 -18.8000 117.300 TC 65 978 6 189
1985026S16126 1985 15 SI WA GERTIE 1985-01-30 15:00:00 TS -19.0204 117.211 main 182 172 P_____P___P_P_ SH171985 -18.7475 117.085 XX 52 -5 -19.0808 117.319 30 53 975 226 -19.1409 117.183 2 64 -19.1125 117.257 TC 67 976 7 186
1985026S16126 1985 15 SI WA GERTIE 1985-01-30 16:00:00 TS -19.1485 117.196 55 975 bom main 172 140 P_____O___P_P_ SH171985 -18.8904 117.091 XX 51 -5 -19.2000 117.300 30 55 975 4.00000 238 7 -19.2714 117.150 2 64 -19.2321 117.241 TC 68 975 8 187
1985026S16126 1985 15 SI WA GERTIE 1985-01-30 18:00:00 TS -19.4381 117.148 60 974 bom main 137 84 O_____O___P_O_ jtwc_sh SH171985 -19.2000 117.100 XX 50 -5 -19.5000 117.200 30 60 974 4.00000 188 7 -19.5525 117.091 2 65 -19.5000 117.200 TC 70 974 9 189
1985026S16126 1985 15 SI WA GERTIE 1985-01-30 21:00:00 TS -19.9188 117.069 60 973 bom main 84 30 P_____O___P_P_ SH171985 -19.6850 117.050 XX 47 -5 -20.0000 117.100 30 60 973 4.00000 157 7 -20.0128 117.027 2 66 -19.9775 117.100 TC 70 974 10 188
1985026S16126 1985 15 SI WA GERTIE 1985-01-31 00:00:00 TS -20.4250 117.000 60 974 bom main 30 0 O_____O___O_O_ jtwc_sh SH171985 -20.2000 117.000 XX 45 -5 -20.5000 117.000 30 60 974 4.00000 259 7 -20.5000 117.000 4 68 -20.5000 117.000 TC 70 974 10 185
1985026S16126 1985 15 SI WA GERTIE 1985-01-31 03:00:00 TS -20.9125 116.978 60 975 bom main 0 0 P_____O___P_P_ SH171985 -20.7000 117.000 XX 42 -5 -21.0000 117.000 30 60 975 265 7 -20.9500 116.998 4 65 -21.0000 116.913 TC 60 975 10 182
1985026S16126 1985 15 SI WA GERTIE 1985-01-31 06:00:00 TS -21.4200 116.955 55 976 bom main 0 0 O_____O___P_O_ jtwc_sh SH171985 -21.2000 117.000 XX 40 -5 -21.5000 116.900 30 55 976 226 7 -21.4250 117.033 4 62 -21.5000 116.900 TC 50 976 10 178
1985026S16126 1985 15 SI WA GERTIE 1985-01-31 09:00:00 TS -21.9329 117.025 50 980 bom main 0 0 P_____O___P_P_ SH171985 -21.7000 116.963 XX 37 -5 -22.0000 117.000 30 50 980 172 7 -21.9375 117.101 4 59 -21.9775 117.005 TC 45 980 11 169
1985026S16126 1985 15 SI WA GERTIE 1985-01-31 12:00:00 TS -22.4769 117.177 40 984 bom main 0 0 O_____O___O_O_ jtwc_sh SH171985 -22.2000 116.900 XX 35 -5 -22.5000 117.200 30 40 984 226 7 -22.5000 117.200 2 56 -22.5000 117.200 TC 40 984 12 164
1985026S16126 1985 15 SI WA GERTIE 1985-01-31 15:00:00 TS -23.1202 117.387 main 0 0 ______P___P_P_ SH171985 XX -5 -23.0755 117.414 30 36 987 -23.1649 117.281 2 51 -23.1201 117.465 TC 37 987 14 164
1985026S16126 1985 15 SI WA GERTIE 1985-01-31 16:00:00 TS -23.3470 117.456 35 988 bom main 0 0 ______O___P_P_ SH171985 XX -5 -23.3000 117.500 30 35 988 7 -23.3985 117.315 2 49 -23.3426 117.554 TC 36 987 15 165
1985026S16126 1985 15 SI WA GERTIE 1985-01-31 18:00:00 TS -23.8240 117.599 30 990 bom main 0 0 ______O___P_O_ XX -5 -23.8000 117.700 20 30 990 7 -23.8719 117.396 2 46 -23.8000 117.700 TC 35 990 14 169
1985026S16126 1985 15 SI WA GERTIE 1985-01-31 21:00:00 TS -24.5226 117.702 30 993 bom main 0 0 ______O___P_P_ XX -5 -24.5000 117.800 20 30 993 7 -24.5679 117.563 2 41 -24.4998 117.744 TC 32 992 14 172
1985026S16126 1985 15 SI WA GERTIE 1985-02-01 00:00:00 TS -25.2000 117.800 30 995 bom main 0 0 ______O___O_O_ -1 -25.2000 117.800 20 30 995 7 -25.2000 117.800 2 36 -25.2000 117.800 TC 30 995 14 167
1985026S16126 1985 15 SI WA GERTIE 1985-02-01 03:00:00 TS -25.8623 118.050 30 997 bom main 0 0 ______O___P_P_ -1 -25.9000 118.000 20 30 997 7 -25.7620 118.119 2 -25.9248 118.032 TC 27 996 13 155
1985026S16126 1985 15 SI WA GERTIE 1985-02-01 06:00:00 TS -26.4150 118.436 30 997 bom main 0 0 ______O___P_O_ -1 -26.5000 118.400 20 30 997 7 -26.2451 118.508 2 -26.5000 118.400 TC 25 997 12 138
1985026S16126 1985 15 SI WA GERTIE 1985-02-01 09:00:00 TS -26.7403 118.948 30 998 bom main 0 0 ______O___P_P_ -1 -26.8000 119.000 20 30 998 7 -26.6306 118.943 2 -26.7903 118.900 TC 22 998 10 119
1985026S16126 1985 15 SI WA GERTIE 1985-02-01 12:00:00 TS -26.9000 119.400 25 999 bom main 0 0 ______O___O_O_ -1 -26.9000 119.400 20 25 999 7 -26.9000 119.400 1 -26.9000 119.400 TC 20 999 8 107
1985026S16126 1985 15 SI WA GERTIE 1985-02-01 15:00:00 TS -26.9698 119.812 main 0 0 ______P___P_P_ -1 -26.8861 119.905 20 25 999 -27.0440 119.846 1 -26.9793 119.685 TC 20 999 7 100
1985026S16126 1985 15 SI WA GERTIE 1985-02-01 16:00:00 TS -26.9851 119.924 25 999 bom main 0 0 ______O___P_P_ -1 -26.9000 120.000 20 25 999 7 -27.0651 119.997 1 -26.9902 119.775 TC 20 999 5 102
1985026S16126 1985 15 SI WA GERTIE 1985-02-01 18:00:00 TS -27.0258 120.101 20 1000 bom main 0 0 ______O___P_O_ -1 -27.0000 120.000 20 20 1000 7 -27.0774 120.302 1 -27.0000 120.000 TC 20 1000 8 93
1985026S16126 1985 15 SI WA GERTIE 1985-02-01 21:00:00 TS -27.0184 120.678 20 1001 bom main 0 0 ______O___P_P_ -1 -27.0000 120.700 20 20 1001 7 -27.0471 120.758 1 -27.0080 120.578 TC 17 1001 10 88
1985026S16126 1985 15 SI WA GERTIE 1985-02-02 00:00:00 TS -27.0000 121.200 20 1002 bom main 0 0 ______O___O_O_ -1 -27.0000 121.200 20 20 1002 7 -27.0000 121.200 5 -27.0000 121.200 TC 15 1002 9 89
1985026S16126 1985 15 SI WA GERTIE 1985-02-02 03:00:00 TS -27.0036 121.674 20 1002 bom main 0 0 ______O___P_P_ -1 -27.0000 121.700 20 20 1002 7 -27.0111 121.635 5 -26.9997 121.687 TC 15 1002 8 90
1985026S16126 1985 15 SI WA GERTIE 1985-02-02 06:00:00 TS -27.0049 122.084 20 1002 bom main 0 0 ______O___P_O_ -1 -27.0000 122.100 20 20 1002 7 -27.0148 122.053 5 -27.0000 122.100 TC 15 1002 7 90
1985026S16126 1985 15 SI WA GERTIE 1985-02-02 09:00:00 TS -27.0037 122.477 20 1002 bom main 0 0 ______O___P_P_ -1 -27.0000 122.500 20 20 1002 7 -27.0112 122.444 5 -26.9999 122.488 TC 15 1002 6 90
1985026S16126 1985 15 SI WA GERTIE 1985-02-02 12:00:00 TS -27.0000 122.800 15 1003 bom main 0 0 ______O___O_O_ -1 -27.0000 122.800 80 15 1003 7 -27.0000 122.800 5 -27.0000 122.800 TC 15 1003 5 89
1985026S16126 1985 15 SI WA GERTIE 1985-02-02 15:00:00 TS -26.9963 123.051 main 0 0 ______P___P_P_ -1 -27.0000 123.039 80 15 1003 -26.9816 123.114 5 -27.0072 123.000 TC 15 1003 4 89
1985026S16126 1985 15 SI WA GERTIE 1985-02-02 16:00:00 TS -26.9939 123.123 15 1003 bom main 0 0 ______O___P_P_ -1 -27.0000 123.100 80 15 1003 7 -26.9741 123.211 5 -27.0077 123.059 TC 15 1003 4 87
1985026S16126 1985 15 SI WA GERTIE 1985-02-02 18:00:00 TS -26.9859 123.265 15 1004 bom main 0 0 ______O___P_O_ -1 -27.0000 123.200 80 15 1004 7 -26.9576 123.395 5 -27.0000 123.200 TC 15 1004 5 81
1985026S16126 1985 15 SI WA GERTIE 1985-02-02 21:00:00 TS -26.9301 123.555 15 1004 bom main 0 0 ______O___P_P_ -1 -26.9000 123.500 80 15 1004 7 -26.9298 123.653 5 -26.9604 123.513 TC 15 1004 6 81
1985026S16126 1985 15 SI WA GERTIE 1985-02-03 00:00:00 TS -26.9000 123.900 15 1005 bom main 0 ______O___O_O_ -1 -26.9000 123.900 80 15 1005 7 -26.9000 123.900 5 -26.9000 123.900 TC 15 1005 6 84

About IBTrACS Database

This database is a web-friendly format of International Best Track Archive for Climate Stewardship (IBTrACS), a global best track data archive curated by NOAA dating back to 1842.

Updated: 2021-11-26